sensor_id;sensor_type;location;lat;lon;timestamp;temperature;humidity
5647;DHT22;2845;48.626;9.362;2023-07-02T00:00:42;18.50;98.90
5647;DHT22;2845;48.626;9.362;2023-07-02T00:03:16;18.50;99.20
5647;DHT22;2845;48.626;9.362;2023-07-02T00:05:55;18.50;99.20
5647;DHT22;2845;48.626;9.362;2023-07-02T00:08:30;18.60;99.00
5647;DHT22;2845;48.626;9.362;2023-07-02T00:11:05;18.50;98.90
5647;DHT22;2845;48.626;9.362;2023-07-02T00:13:39;18.50;98.90
5647;DHT22;2845;48.626;9.362;2023-07-02T00:16:14;18.50;99.20
5647;DHT22;2845;48.626;9.362;2023-07-02T00:18:48;18.50;99.40
5647;DHT22;2845;48.626;9.362;2023-07-02T00:21:25;18.40;99.40
5647;DHT22;2845;48.626;9.362;2023-07-02T00:24:01;18.40;99.40
5647;DHT22;2845;48.626;9.362;2023-07-02T00:26:37;18.40;99.30
5647;DHT22;2845;48.626;9.362;2023-07-02T00:29:13;18.30;99.30
5647;DHT22;2845;48.626;9.362;2023-07-02T00:31:47;18.20;99.60
5647;DHT22;2845;48.626;9.362;2023-07-02T00:34:21;18.30;99.90
5647;DHT22;2845;48.626;9.362;2023-07-02T00:36:56;18.30;99.90
5647;DHT22;2845;48.626;9.362;2023-07-02T00:39:30;18.30;99.80
5647;DHT22;2845;48.626;9.362;2023-07-02T00:42:06;18.30;99.80
5647;DHT22;2845;48.626;9.362;2023-07-02T00:44:41;18.20;99.80
5647;DHT22;2845;48.626;9.362;2023-07-02T00:47:16;18.10;99.90
5647;DHT22;2845;48.626;9.362;2023-07-02T00:49:50;18.10;99.90
5647;DHT22;2845;48.626;9.362;2023-07-02T00:52:25;18.10;99.90
5647;DHT22;2845;48.626;9.362;2023-07-02T00:54:59;18.10;99.90
5647;DHT22;2845;48.626;9.362;2023-07-02T00:57:34;18.40;99.90
5647;DHT22;2845;48.626;9.362;2023-07-02T01:00:09;18.20;99.90
5647;DHT22;2845;48.626;9.362;2023-07-02T01:02:53;18.30;99.90
5647;DHT22;2845;48.626;9.362;2023-07-02T01:05:30;18.30;99.90
5647;DHT22;2845;48.626;9.362;2023-07-02T01:08:08;18.30;99.90
5647;DHT22;2845;48.626;9.362;2023-07-02T01:10:43;18.30;99.80
5647;DHT22;2845;48.626;9.362;2023-07-02T01:13:21;18.30;99.80
5647;DHT22;2845;48.626;9.362;2023-07-02T01:15:57;18.20;99.70
5647;DHT22;2845;48.626;9.362;2023-07-02T01:18:32;18.10;99.80
5647;DHT22;2845;48.626;9.362;2023-07-02T01:21:07;18.10;99.80
5647;DHT22;2845;48.626;9.362;2023-07-02T01:23:42;18.10;99.90
5647;DHT22;2845;48.626;9.362;2023-07-02T01:26:16;18.10;99.90
5647;DHT22;2845;48.626;9.362;2023-07-02T01:28:51;18.10;99.90
5647;DHT22;2845;48.626;9.362;2023-07-02T01:31:25;18.20;99.90
5647;DHT22;2845;48.626;9.362;2023-07-02T01:33:59;18.20;99.80
5647;DHT22;2845;48.626;9.362;2023-07-02T01:36:35;18.10;99.70
5647;DHT22;2845;48.626;9.362;2023-07-02T01:39:09;18.10;99.80
5647;DHT22;2845;48.626;9.362;2023-07-02T01:41:48;18.00;99.70
5647;DHT22;2845;48.626;9.362;2023-07-02T01:44:23;18.00;99.90
5647;DHT22;2845;48.626;9.362;2023-07-02T01:46:57;18.00;99.90
5647;DHT22;2845;48.626;9.362;2023-07-02T01:49:31;18.00;99.90
5647;DHT22;2845;48.626;9.362;2023-07-02T01:52:07;18.00;99.90
5647;DHT22;2845;48.626;9.362;2023-07-02T01:54:42;17.90;99.90
5647;DHT22;2845;48.626;9.362;2023-07-02T01:57:17;17.80;99.90
5647;DHT22;2845;48.626;9.362;2023-07-02T01:59:51;17.70;99.90
5647;DHT22;2845;48.626;9.362;2023-07-02T02:02:25;17.50;99.90
5647;DHT22;2845;48.626;9.362;2023-07-02T02:04:59;17.40;99.90
5647;DHT22;2845;48.626;9.362;2023-07-02T02:07:35;17.30;99.90
5647;DHT22;2845;48.626;9.362;2023-07-02T02:10:10;17.10;99.90
5647;DHT22;2845;48.626;9.362;2023-07-02T02:12:44;17.10;99.90
5647;DHT22;2845;48.626;9.362;2023-07-02T02:15:18;17.00;99.90
5647;DHT22;2845;48.626;9.362;2023-07-02T02:17:52;16.80;99.90
5647;DHT22;2845;48.626;9.362;2023-07-02T02:20:27;16.70;99.90
5647;DHT22;2845;48.626;9.362;2023-07-02T02:23:02;16.70;99.90
5647;DHT22;2845;48.626;9.362;2023-07-02T02:25:36;16.70;99.90
5647;DHT22;2845;48.626;9.362;2023-07-02T02:28:10;16.80;99.90
5647;DHT22;2845;48.626;9.362;2023-07-02T02:30:45;16.80;99.90
5647;DHT22;2845;48.626;9.362;2023-07-02T02:33:21;17.00;99.90
5647;DHT22;2845;48.626;9.362;2023-07-02T02:35:55;16.80;99.90
5647;DHT22;2845;48.626;9.362;2023-07-02T02:38:31;16.90;99.90
5647;DHT22;2845;48.626;9.362;2023-07-02T02:41:06;17.00;99.90
5647;DHT22;2845;48.626;9.362;2023-07-02T02:43:41;17.00;99.90
5647;DHT22;2845;48.626;9.362;2023-07-02T02:46:19;16.90;99.90
5647;DHT22;2845;48.626;9.362;2023-07-02T02:48:54;17.00;99.90
5647;DHT22;2845;48.626;9.362;2023-07-02T02:51:28;16.90;99.90
5647;DHT22;2845;48.626;9.362;2023-07-02T02:54:04;16.90;99.90
5647;DHT22;2845;48.626;9.362;2023-07-02T02:56:38;17.00;99.90
5647;DHT22;2845;48.626;9.362;2023-07-02T02:59:12;17.00;99.90
5647;DHT22;2845;48.626;9.362;2023-07-02T03:01:46;16.90;99.90
5647;DHT22;2845;48.626;9.362;2023-07-02T03:04:21;17.00;99.90
5647;DHT22;2845;48.626;9.362;2023-07-02T03:06:57;17.00;99.90
5647;DHT22;2845;48.626;9.362;2023-07-02T03:09:32;17.10;99.90
5647;DHT22;2845;48.626;9.362;2023-07-02T03:12:07;17.10;99.90
5647;DHT22;2845;48.626;9.362;2023-07-02T03:14:41;17.10;99.90
5647;DHT22;2845;48.626;9.362;2023-07-02T03:17:15;17.10;99.90
5647;DHT22;2845;48.626;9.362;2023-07-02T03:19:50;17.10;99.90
5647;DHT22;2845;48.626;9.362;2023-07-02T03:22:24;17.10;99.90
5647;DHT22;2845;48.626;9.362;2023-07-02T03:25:00;17.10;99.90
5647;DHT22;2845;48.626;9.362;2023-07-02T03:27:34;17.10;99.90
5647;DHT22;2845;48.626;9.362;2023-07-02T03:30:09;17.20;99.90
5647;DHT22;2845;48.626;9.362;2023-07-02T03:32:43;17.30;99.90
5647;DHT22;2845;48.626;9.362;2023-07-02T03:35:17;17.30;99.20
5647;DHT22;2845;48.626;9.362;2023-07-02T03:37:51;17.40;98.20
5647;DHT22;2845;48.626;9.362;2023-07-02T03:40:27;17.40;97.80
5647;DHT22;2845;48.626;9.362;2023-07-02T03:43:01;17.70;97.40
5647;DHT22;2845;48.626;9.362;2023-07-02T03:45:35;17.50;97.50
5647;DHT22;2845;48.626;9.362;2023-07-02T03:48:09;17.40;97.60
5647;DHT22;2845;48.626;9.362;2023-07-02T03:50:43;17.30;98.00
5647;DHT22;2845;48.626;9.362;2023-07-02T03:53:18;17.30;98.20
5647;DHT22;2845;48.626;9.362;2023-07-02T03:55:54;17.20;98.30
5647;DHT22;2845;48.626;9.362;2023-07-02T03:58:28;17.10;98.90
5647;DHT22;2845;48.626;9.362;2023-07-02T04:01:02;17.00;99.30
5647;DHT22;2845;48.626;9.362;2023-07-02T04:03:36;16.90;99.70
5647;DHT22;2845;48.626;9.362;2023-07-02T04:06:11;16.90;99.70
5647;DHT22;2845;48.626;9.362;2023-07-02T04:08:45;16.90;99.90
5647;DHT22;2845;48.626;9.362;2023-07-02T04:11:20;16.90;99.90
5647;DHT22;2845;48.626;9.362;2023-07-02T04:13:55;16.90;99.90
5647;DHT22;2845;48.626;9.362;2023-07-02T04:16:29;16.90;99.90
5647;DHT22;2845;48.626;9.362;2023-07-02T04:19:03;16.90;99.90
5647;DHT22;2845;48.626;9.362;2023-07-02T04:21:37;17.00;99.90
5647;DHT22;2845;48.626;9.362;2023-07-02T04:24:11;16.90;99.90
5647;DHT22;2845;48.626;9.362;2023-07-02T04:26:47;16.90;99.90
5647;DHT22;2845;48.626;9.362;2023-07-02T04:29:41;16.90;99.90
5647;DHT22;2845;48.626;9.362;2023-07-02T04:32:15;17.00;99.90
5647;DHT22;2845;48.626;9.362;2023-07-02T04:34:50;17.00;99.90
5647;DHT22;2845;48.626;9.362;2023-07-02T04:37:24;18.70;99.90
5647;DHT22;2845;48.626;9.362;2023-07-02T04:39:58;16.90;99.90
5647;DHT22;2845;48.626;9.362;2023-07-02T04:42:34;16.90;99.90
5647;DHT22;2845;48.626;9.362;2023-07-02T04:45:10;16.80;99.90
5647;DHT22;2845;48.626;9.362;2023-07-02T04:47:49;16.80;99.90
5647;DHT22;2845;48.626;9.362;2023-07-02T04:50:23;16.80;99.90
5647;DHT22;2845;48.626;9.362;2023-07-02T04:52:57;16.80;99.90
5647;DHT22;2845;48.626;9.362;2023-07-02T04:55:31;16.80;99.90
5647;DHT22;2845;48.626;9.362;2023-07-02T04:58:07;17.50;99.90
5647;DHT22;2845;48.626;9.362;2023-07-02T05:00:41;16.90;99.90
5647;DHT22;2845;48.626;9.362;2023-07-02T05:03:15;16.90;99.90
5647;DHT22;2845;48.626;9.362;2023-07-02T05:05:49;16.80;99.90
5647;DHT22;2845;48.626;9.362;2023-07-02T05:08:24;16.90;99.90
5647;DHT22;2845;48.626;9.362;2023-07-02T05:10:58;16.90;99.90
5647;DHT22;2845;48.626;9.362;2023-07-02T05:13:34;17.50;99.90
5647;DHT22;2845;48.626;9.362;2023-07-02T05:16:08;17.00;99.90
5647;DHT22;2845;48.626;9.362;2023-07-02T05:18:43;17.00;99.90
5647;DHT22;2845;48.626;9.362;2023-07-02T05:21:18;17.00;99.90
5647;DHT22;2845;48.626;9.362;2023-07-02T05:23:52;16.90;99.90
5647;DHT22;2845;48.626;9.362;2023-07-02T05:26:26;16.90;99.90
5647;DHT22;2845;48.626;9.362;2023-07-02T05:29:02;17.00;99.90
5647;DHT22;2845;48.626;9.362;2023-07-02T05:31:38;17.10;99.90
5647;DHT22;2845;48.626;9.362;2023-07-02T05:34:12;17.20;99.90
5647;DHT22;2845;48.626;9.362;2023-07-02T05:36:46;17.30;99.90
5647;DHT22;2845;48.626;9.362;2023-07-02T05:39:20;17.40;99.90
5647;DHT22;2845;48.626;9.362;2023-07-02T05:41:56;17.60;99.90
5647;DHT22;2845;48.626;9.362;2023-07-02T05:44:31;17.80;99.90
5647;DHT22;2845;48.626;9.362;2023-07-02T05:47:06;18.00;99.90
5647;DHT22;2845;48.626;9.362;2023-07-02T05:49:41;18.10;99.90
5647;DHT22;2845;48.626;9.362;2023-07-02T05:52:15;18.10;99.70
5647;DHT22;2845;48.626;9.362;2023-07-02T05:54:49;18.10;99.70
5647;DHT22;2845;48.626;9.362;2023-07-02T05:57:23;18.20;99.70
5647;DHT22;2845;48.626;9.362;2023-07-02T05:59:59;18.60;99.50
5647;DHT22;2845;48.626;9.362;2023-07-02T06:02:34;18.90;98.90
5647;DHT22;2845;48.626;9.362;2023-07-02T06:05:08;19.40;98.70
5647;DHT22;2845;48.626;9.362;2023-07-02T06:07:42;19.20;98.20
5647;DHT22;2845;48.626;9.362;2023-07-02T06:10:17;19.30;97.80
5647;DHT22;2845;48.626;9.362;2023-07-02T06:12:51;19.10;97.60
5647;DHT22;2845;48.626;9.362;2023-07-02T06:15:27;18.90;97.70
5647;DHT22;2845;48.626;9.362;2023-07-02T06:18:01;19.20;97.90
5647;DHT22;2845;48.626;9.362;2023-07-02T06:20:36;18.90;97.80
5647;DHT22;2845;48.626;9.362;2023-07-02T06:23:10;19.10;97.60
5647;DHT22;2845;48.626;9.362;2023-07-02T06:25:44;19.20;97.30
5647;DHT22;2845;48.626;9.362;2023-07-02T06:28:18;19.40;97.00
5647;DHT22;2845;48.626;9.362;2023-07-02T06:30:54;19.30;96.60
5647;DHT22;2845;48.626;9.362;2023-07-02T06:33:28;19.30;96.60
5647;DHT22;2845;48.626;9.362;2023-07-02T06:36:02;19.30;96.50
5647;DHT22;2845;48.626;9.362;2023-07-02T06:38:37;19.30;96.20
5647;DHT22;2845;48.626;9.362;2023-07-02T06:41:11;19.40;96.20
5647;DHT22;2845;48.626;9.362;2023-07-02T06:43:45;19.40;95.90
5647;DHT22;2845;48.626;9.362;2023-07-02T06:46:20;19.40;95.70
5647;DHT22;2845;48.626;9.362;2023-07-02T06:48:55;19.50;95.70
5647;DHT22;2845;48.626;9.362;2023-07-02T06:51:29;19.60;95.50
5647;DHT22;2845;48.626;9.362;2023-07-02T06:54:04;19.60;95.20
5647;DHT22;2845;48.626;9.362;2023-07-02T06:56:38;19.80;94.70
5647;DHT22;2845;48.626;9.362;2023-07-02T06:59:18;19.90;94.30
5647;DHT22;2845;48.626;9.362;2023-07-02T07:01:55;19.50;93.70
5647;DHT22;2845;48.626;9.362;2023-07-02T07:04:29;20.50;93.60
5647;DHT22;2845;48.626;9.362;2023-07-02T07:07:04;20.50;92.90
5647;DHT22;2845;48.626;9.362;2023-07-02T07:09:38;20.30;93.30
5647;DHT22;2845;48.626;9.362;2023-07-02T07:12:13;20.30;93.50
5647;DHT22;2845;48.626;9.362;2023-07-02T07:14:47;20.50;93.00
5647;DHT22;2845;48.626;9.362;2023-07-02T07:17:22;20.60;92.90
5647;DHT22;2845;48.626;9.362;2023-07-02T07:19:57;20.60;92.90
5647;DHT22;2845;48.626;9.362;2023-07-02T07:22:33;20.60;92.90
5647;DHT22;2845;48.626;9.362;2023-07-02T07:25:08;20.40;92.90
5647;DHT22;2845;48.626;9.362;2023-07-02T07:27:43;20.30;93.00
5647;DHT22;2845;48.626;9.362;2023-07-02T07:30:18;20.20;93.10
5647;DHT22;2845;48.626;9.362;2023-07-02T07:32:57;20.10;93.30
5647;DHT22;2845;48.626;9.362;2023-07-02T07:35:32;20.20;93.60
5647;DHT22;2845;48.626;9.362;2023-07-02T07:38:06;20.30;93.10
5647;DHT22;2845;48.626;9.362;2023-07-02T07:40:40;20.50;92.80
5647;DHT22;2845;48.626;9.362;2023-07-02T07:43:15;20.70;92.80
5647;DHT22;2845;48.626;9.362;2023-07-02T07:45:49;20.70;92.90
5647;DHT22;2845;48.626;9.362;2023-07-02T07:48:25;20.80;92.60
5647;DHT22;2845;48.626;9.362;2023-07-02T07:51:00;20.80;92.50
5647;DHT22;2845;48.626;9.362;2023-07-02T07:53:37;20.80;92.40
5647;DHT22;2845;48.626;9.362;2023-07-02T07:56:12;20.80;92.20
5647;DHT22;2845;48.626;9.362;2023-07-02T07:58:47;20.90;92.40
5647;DHT22;2845;48.626;9.362;2023-07-02T08:01:21;21.00;92.00
5647;DHT22;2845;48.626;9.362;2023-07-02T08:03:57;24.00;92.70
5647;DHT22;2845;48.626;9.362;2023-07-02T08:06:31;21.60;91.80
5647;DHT22;2845;48.626;9.362;2023-07-02T08:09:06;22.00;91.50
5647;DHT22;2845;48.626;9.362;2023-07-02T08:11:40;22.20;90.80
5647;DHT22;2845;48.626;9.362;2023-07-02T08:14:16;22.30;90.70
5647;DHT22;2845;48.626;9.362;2023-07-02T08:16:51;22.40;90.10
5647;DHT22;2845;48.626;9.362;2023-07-02T08:19:27;22.40;89.80
5647;DHT22;2845;48.626;9.362;2023-07-02T08:22:02;22.40;89.20
5647;DHT22;2845;48.626;9.362;2023-07-02T08:24:37;22.70;89.40
5647;DHT22;2845;48.626;9.362;2023-07-02T08:27:24;23.20;88.60
5647;DHT22;2845;48.626;9.362;2023-07-02T08:29:59;23.10;88.40
5647;DHT22;2845;48.626;9.362;2023-07-02T08:32:34;23.10;87.50
5647;DHT22;2845;48.626;9.362;2023-07-02T08:37:44;23.40;86.00
5647;DHT22;2845;48.626;9.362;2023-07-02T08:40:19;23.50;85.40
5647;DHT22;2845;48.626;9.362;2023-07-02T08:42:53;23.40;85.10
5647;DHT22;2845;48.626;9.362;2023-07-02T08:45:28;23.30;84.90
5647;DHT22;2845;48.626;9.362;2023-07-02T08:48:03;23.10;85.10
5647;DHT22;2845;48.626;9.362;2023-07-02T08:50:39;23.00;84.80
5647;DHT22;2845;48.626;9.362;2023-07-02T08:53:13;23.20;82.90
5647;DHT22;2845;48.626;9.362;2023-07-02T08:55:48;23.30;83.30
5647;DHT22;2845;48.626;9.362;2023-07-02T08:58:22;23.40;83.60
5647;DHT22;2845;48.626;9.362;2023-07-02T09:01:10;23.70;81.80
5647;DHT22;2845;48.626;9.362;2023-07-02T09:03:45;24.10;81.30
5647;DHT22;2845;48.626;9.362;2023-07-02T09:06:21;24.10;81.50
5647;DHT22;2845;48.626;9.362;2023-07-02T09:09:04;24.00;81.10
5647;DHT22;2845;48.626;9.362;2023-07-02T09:11:47;24.00;80.50
5647;DHT22;2845;48.626;9.362;2023-07-02T09:14:27;23.80;81.30
5647;DHT22;2845;48.626;9.362;2023-07-02T09:17:04;25.30;81.60
5647;DHT22;2845;48.626;9.362;2023-07-02T09:19:51;23.60;79.70
5647;DHT22;2845;48.626;9.362;2023-07-02T09:22:26;23.30;80.30
5647;DHT22;2845;48.626;9.362;2023-07-02T09:25:01;23.30;80.10
5647;DHT22;2845;48.626;9.362;2023-07-02T09:27:38;23.30;81.20
5647;DHT22;2845;48.626;9.362;2023-07-02T09:30:15;23.40;80.90
5647;DHT22;2845;48.626;9.362;2023-07-02T09:32:49;23.60;80.00
5647;DHT22;2845;48.626;9.362;2023-07-02T09:35:24;24.00;79.10
5647;DHT22;2845;48.626;9.362;2023-07-02T09:37:59;24.20;78.30
5647;DHT22;2845;48.626;9.362;2023-07-02T09:40:34;24.50;78.70
5647;DHT22;2845;48.626;9.362;2023-07-02T09:43:09;24.70;78.10
5647;DHT22;2845;48.626;9.362;2023-07-02T09:45:44;24.90;76.50
5647;DHT22;2845;48.626;9.362;2023-07-02T09:48:23;24.90;77.20
5647;DHT22;2845;48.626;9.362;2023-07-02T09:50:59;24.60;77.00
5647;DHT22;2845;48.626;9.362;2023-07-02T09:53:35;24.30;78.20
5647;DHT22;2845;48.626;9.362;2023-07-02T09:56:09;24.10;78.30
5647;DHT22;2845;48.626;9.362;2023-07-02T09:58:45;24.20;77.80
5647;DHT22;2845;48.626;9.362;2023-07-02T10:01:19;24.10;78.00
5647;DHT22;2845;48.626;9.362;2023-07-02T10:03:53;24.50;77.10
5647;DHT22;2845;48.626;9.362;2023-07-02T10:06:28;24.70;75.50
5647;DHT22;2845;48.626;9.362;2023-07-02T10:09:04;24.90;76.20
5647;DHT22;2845;48.626;9.362;2023-07-02T10:11:38;24.90;75.90
5647;DHT22;2845;48.626;9.362;2023-07-02T10:14:12;24.90;75.70
5647;DHT22;2845;48.626;9.362;2023-07-02T10:16:51;24.70;75.90
5647;DHT22;2845;48.626;9.362;2023-07-02T10:19:26;24.50;75.90
5647;DHT22;2845;48.626;9.362;2023-07-02T10:22:01;24.40;75.80
5647;DHT22;2845;48.626;9.362;2023-07-02T10:24:37;24.30;76.40
5647;DHT22;2845;48.626;9.362;2023-07-02T10:27:11;24.30;76.30
5647;DHT22;2845;48.626;9.362;2023-07-02T10:29:50;24.40;75.40
5647;DHT22;2845;48.626;9.362;2023-07-02T10:32:27;24.10;75.70
5647;DHT22;2845;48.626;9.362;2023-07-02T10:35:12;23.90;76.60
5647;DHT22;2845;48.626;9.362;2023-07-02T10:37:47;23.80;77.00
5647;DHT22;2845;48.626;9.362;2023-07-02T10:40:22;23.90;75.90
5647;DHT22;2845;48.626;9.362;2023-07-02T10:42:57;24.20;76.10
5647;DHT22;2845;48.626;9.362;2023-07-02T10:45:32;24.20;74.80
5647;DHT22;2845;48.626;9.362;2023-07-02T10:48:09;24.10;74.50
5647;DHT22;2845;48.626;9.362;2023-07-02T10:50:44;24.30;73.20
5647;DHT22;2845;48.626;9.362;2023-07-02T10:53:20;24.50;73.30
5647;DHT22;2845;48.626;9.362;2023-07-02T10:55:57;24.70;72.80
5647;DHT22;2845;48.626;9.362;2023-07-02T10:58:42;24.90;72.60
5647;DHT22;2845;48.626;9.362;2023-07-02T11:01:22;25.00;72.90
5647;DHT22;2845;48.626;9.362;2023-07-02T11:03:59;24.90;71.70
5647;DHT22;2845;48.626;9.362;2023-07-02T11:06:34;24.50;72.40
5647;DHT22;2845;48.626;9.362;2023-07-02T11:09:15;24.80;72.70
5647;DHT22;2845;48.626;9.362;2023-07-02T11:11:54;24.40;72.40
5647;DHT22;2845;48.626;9.362;2023-07-02T11:14:30;24.40;71.40
5647;DHT22;2845;48.626;9.362;2023-07-02T11:17:06;24.40;71.20
5647;DHT22;2845;48.626;9.362;2023-07-02T11:19:41;24.50;71.30
5647;DHT22;2845;48.626;9.362;2023-07-02T11:22:15;24.40;71.10
5647;DHT22;2845;48.626;9.362;2023-07-02T11:24:49;24.20;72.50
5647;DHT22;2845;48.626;9.362;2023-07-02T11:27:25;23.90;72.30
5647;DHT22;2845;48.626;9.362;2023-07-02T11:30:01;24.60;72.00
5647;DHT22;2845;48.626;9.362;2023-07-02T11:32:47;24.30;71.20
5647;DHT22;2845;48.626;9.362;2023-07-02T11:35:33;24.50;70.40
5647;DHT22;2845;48.626;9.362;2023-07-02T11:38:08;24.40;71.00
5647;DHT22;2845;48.626;9.362;2023-07-02T11:40:43;24.80;72.00
5647;DHT22;2845;48.626;9.362;2023-07-02T11:43:20;24.50;70.70
5647;DHT22;2845;48.626;9.362;2023-07-02T11:45:55;24.70;70.20
5647;DHT22;2845;48.626;9.362;2023-07-02T11:48:30;25.00;69.70
5647;DHT22;2845;48.626;9.362;2023-07-02T11:51:04;24.60;69.10
5647;DHT22;2845;48.626;9.362;2023-07-02T11:53:38;24.70;68.90
5647;DHT22;2845;48.626;9.362;2023-07-02T11:56:13;24.90;69.40
5647;DHT22;2845;48.626;9.362;2023-07-02T11:58:49;24.90;69.40
5647;DHT22;2845;48.626;9.362;2023-07-02T12:01:23;25.00;69.00
5647;DHT22;2845;48.626;9.362;2023-07-02T12:03:57;25.20;68.10
5647;DHT22;2845;48.626;9.362;2023-07-02T12:06:32;25.50;68.70
5647;DHT22;2845;48.626;9.362;2023-07-02T12:09:06;25.60;68.10
5647;DHT22;2845;48.626;9.362;2023-07-02T12:11:40;25.30;68.40
5647;DHT22;2845;48.626;9.362;2023-07-02T12:14:16;25.20;67.90
5647;DHT22;2845;48.626;9.362;2023-07-02T12:16:50;25.50;67.10
5647;DHT22;2845;48.626;9.362;2023-07-02T12:19:26;25.70;67.70
5647;DHT22;2845;48.626;9.362;2023-07-02T12:22:00;26.10;67.90
5647;DHT22;2845;48.626;9.362;2023-07-02T12:24:35;25.90;66.50
5647;DHT22;2845;48.626;9.362;2023-07-02T12:27:10;25.50;65.20
5647;DHT22;2845;48.626;9.362;2023-07-02T12:29:45;25.30;66.00
5647;DHT22;2845;48.626;9.362;2023-07-02T12:32:21;25.20;66.50
5647;DHT22;2845;48.626;9.362;2023-07-02T12:34:56;26.00;68.50
5647;DHT22;2845;48.626;9.362;2023-07-02T12:37:32;25.40;68.30
5647;DHT22;2845;48.626;9.362;2023-07-02T12:40:08;26.80;66.60
5647;DHT22;2845;48.626;9.362;2023-07-02T12:42:44;25.70;66.50
5647;DHT22;2845;48.626;9.362;2023-07-02T12:45:21;25.70;66.90
5647;DHT22;2845;48.626;9.362;2023-07-02T12:47:55;25.60;64.90
5647;DHT22;2845;48.626;9.362;2023-07-02T12:50:29;25.40;65.10
5647;DHT22;2845;48.626;9.362;2023-07-02T12:53:04;25.60;66.20
5647;DHT22;2845;48.626;9.362;2023-07-02T12:55:38;25.90;65.70
5647;DHT22;2845;48.626;9.362;2023-07-02T12:58:13;24.60;64.10
5647;DHT22;2845;48.626;9.362;2023-07-02T13:00:49;26.00;65.60
5647;DHT22;2845;48.626;9.362;2023-07-02T13:03:24;26.30;65.40
5647;DHT22;2845;48.626;9.362;2023-07-02T13:05:58;26.60;63.70
5647;DHT22;2845;48.626;9.362;2023-07-02T13:08:33;26.80;63.70
5647;DHT22;2845;48.626;9.362;2023-07-02T13:11:07;27.10;62.80
5647;DHT22;2845;48.626;9.362;2023-07-02T13:13:42;27.20;61.80
5647;DHT22;2845;48.626;9.362;2023-07-02T13:16:21;27.00;63.30
5647;DHT22;2845;48.626;9.362;2023-07-02T13:18:57;26.90;62.80
5647;DHT22;2845;48.626;9.362;2023-07-02T13:21:34;26.90;62.00
5647;DHT22;2845;48.626;9.362;2023-07-02T13:24:08;26.80;63.50
5647;DHT22;2845;48.626;9.362;2023-07-02T13:26:44;26.50;63.00
5647;DHT22;2845;48.626;9.362;2023-07-02T13:29:18;26.50;63.00
5647;DHT22;2845;48.626;9.362;2023-07-02T13:31:54;26.60;62.60
5647;DHT22;2845;48.626;9.362;2023-07-02T13:34:28;25.10;61.00
5647;DHT22;2845;48.626;9.362;2023-07-02T13:37:03;27.20;61.20
5647;DHT22;2845;48.626;9.362;2023-07-02T13:39:38;27.20;61.00
5647;DHT22;2845;48.626;9.362;2023-07-02T13:42:12;27.40;61.50
5647;DHT22;2845;48.626;9.362;2023-07-02T13:44:46;27.80;61.50
5647;DHT22;2845;48.626;9.362;2023-07-02T13:47:22;28.00;61.10
5647;DHT22;2845;48.626;9.362;2023-07-02T13:49:57;27.80;60.20
5647;DHT22;2845;48.626;9.362;2023-07-02T13:52:32;27.60;61.20
5647;DHT22;2845;48.626;9.362;2023-07-02T13:55:09;27.50;60.70
5647;DHT22;2845;48.626;9.362;2023-07-02T13:57:43;28.40;60.90
5647;DHT22;2845;48.626;9.362;2023-07-02T14:02:54;27.50;60.20
5647;DHT22;2845;48.626;9.362;2023-07-02T14:05:29;27.20;60.70
5647;DHT22;2845;48.626;9.362;2023-07-02T14:08:03;27.40;60.70
5647;DHT22;2845;48.626;9.362;2023-07-02T14:10:39;25.90;57.80
5647;DHT22;2845;48.626;9.362;2023-07-02T14:13:22;27.50;58.60
5647;DHT22;2845;48.626;9.362;2023-07-02T14:16:03;27.50;60.10
5647;DHT22;2845;48.626;9.362;2023-07-02T14:18:38;27.50;60.50
5647;DHT22;2845;48.626;9.362;2023-07-02T14:21:13;27.60;58.90
5647;DHT22;2845;48.626;9.362;2023-07-02T14:23:47;27.80;58.70
5647;DHT22;2845;48.626;9.362;2023-07-02T14:26:24;27.70;57.70
5647;DHT22;2845;48.626;9.362;2023-07-02T14:28:59;27.40;57.90
5647;DHT22;2845;48.626;9.362;2023-07-02T14:31:38;27.50;59.40
5647;DHT22;2845;48.626;9.362;2023-07-02T14:34:13;28.30;59.30
5647;DHT22;2845;48.626;9.362;2023-07-02T14:36:48;28.50;58.80
5647;DHT22;2845;48.626;9.362;2023-07-02T14:39:25;28.30;57.70
5647;DHT22;2845;48.626;9.362;2023-07-02T14:41:59;28.10;59.10
5647;DHT22;2845;48.626;9.362;2023-07-02T14:44:34;28.00;58.90
5647;DHT22;2845;48.626;9.362;2023-07-02T14:47:10;27.90;59.80
5647;DHT22;2845;48.626;9.362;2023-07-02T14:49:45;28.00;58.70
5647;DHT22;2845;48.626;9.362;2023-07-02T14:52:19;28.20;59.00
5647;DHT22;2845;48.626;9.362;2023-07-02T14:54:54;29.40;60.10
5647;DHT22;2845;48.626;9.362;2023-07-02T14:57:29;28.10;57.90
5647;DHT22;2845;48.626;9.362;2023-07-02T15:00:05;27.90;58.60
5647;DHT22;2845;48.626;9.362;2023-07-02T15:05:19;28.60;58.80
5647;DHT22;2845;48.626;9.362;2023-07-02T15:07:54;28.70;58.30
5647;DHT22;2845;48.626;9.362;2023-07-02T15:10:28;30.10;60.10
5647;DHT22;2845;48.626;9.362;2023-07-02T15:17:44;27.70;59.30
5647;DHT22;2845;48.626;9.362;2023-07-02T15:20:19;27.40;60.00
5647;DHT22;2845;48.626;9.362;2023-07-02T15:22:53;30.60;62.00
5647;DHT22;2845;48.626;9.362;2023-07-02T15:25:29;28.30;59.60
5647;DHT22;2845;48.626;9.362;2023-07-02T15:28:04;29.00;58.10
5647;DHT22;2845;48.626;9.362;2023-07-02T15:30:39;28.80;57.40
5647;DHT22;2845;48.626;9.362;2023-07-02T15:33:15;28.60;59.00
5647;DHT22;2845;48.626;9.362;2023-07-02T15:35:52;28.40;59.60
5647;DHT22;2845;48.626;9.362;2023-07-02T15:38:27;28.10;59.50
5647;DHT22;2845;48.626;9.362;2023-07-02T15:41:09;27.90;59.20
5647;DHT22;2845;48.626;9.362;2023-07-02T15:43:46;27.80;60.00
5647;DHT22;2845;48.626;9.362;2023-07-02T15:46:21;26.80;60.10
5647;DHT22;2845;48.626;9.362;2023-07-02T15:48:58;27.70;60.50
5647;DHT22;2845;48.626;9.362;2023-07-02T15:51:36;27.60;60.30
5647;DHT22;2845;48.626;9.362;2023-07-02T15:54:12;24.60;58.00
5647;DHT22;2845;48.626;9.362;2023-07-02T15:56:47;25.20;58.90
5647;DHT22;2845;48.626;9.362;2023-07-02T15:59:22;26.90;61.20
5647;DHT22;2845;48.626;9.362;2023-07-02T16:01:58;26.70;61.10
5647;DHT22;2845;48.626;9.362;2023-07-02T16:04:36;26.60;59.50
5647;DHT22;2845;48.626;9.362;2023-07-02T16:07:13;27.40;61.60
5647;DHT22;2845;48.626;9.362;2023-07-02T16:09:48;26.30;61.00
5647;DHT22;2845;48.626;9.362;2023-07-02T16:12:22;26.00;61.40
5647;DHT22;2845;48.626;9.362;2023-07-02T16:14:56;26.00;60.50
5647;DHT22;2845;48.626;9.362;2023-07-02T16:17:31;26.20;60.10
5647;DHT22;2845;48.626;9.362;2023-07-02T16:20:07;26.20;60.60
5647;DHT22;2845;48.626;9.362;2023-07-02T16:22:43;26.00;59.00
5647;DHT22;2845;48.626;9.362;2023-07-02T16:25:19;26.00;60.80
5647;DHT22;2845;48.626;9.362;2023-07-02T16:27:53;27.40;61.80
5647;DHT22;2845;48.626;9.362;2023-07-02T16:30:28;26.00;60.10
5647;DHT22;2845;48.626;9.362;2023-07-02T16:33:03;26.00;60.40
5647;DHT22;2845;48.626;9.362;2023-07-02T16:35:41;26.00;60.80
5647;DHT22;2845;48.626;9.362;2023-07-02T16:38:15;25.90;60.00
5647;DHT22;2845;48.626;9.362;2023-07-02T16:40:49;25.70;60.20
5647;DHT22;2845;48.626;9.362;2023-07-02T16:43:23;25.60;59.90
5647;DHT22;2845;48.626;9.362;2023-07-02T16:45:59;25.50;60.40
5647;DHT22;2845;48.626;9.362;2023-07-02T16:48:34;27.40;61.80
5647;DHT22;2845;48.626;9.362;2023-07-02T16:51:13;25.50;60.50
5647;DHT22;2845;48.626;9.362;2023-07-02T16:54:03;25.60;60.70
5647;DHT22;2845;48.626;9.362;2023-07-02T16:56:37;25.50;60.60
5647;DHT22;2845;48.626;9.362;2023-07-02T16:59:13;26.70;61.60
5647;DHT22;2845;48.626;9.362;2023-07-02T17:01:52;25.40;61.50
5647;DHT22;2845;48.626;9.362;2023-07-02T17:04:27;25.20;60.70
5647;DHT22;2845;48.626;9.362;2023-07-02T17:09:40;25.10;60.30